sensor_id;sensor_type;location;lat;lon;timestamp;P1;durP1;ratioP1;P2;durP2;ratioP2
24163;SDS011;12319;49.204;8.116;2024-03-06T00:00:41;3.87;;;2.10;;
24163;SDS011;12319;49.204;8.116;2024-03-06T00:03:06;4.50;;;2.03;;
24163;SDS011;12319;49.204;8.116;2024-03-06T00:05:32;3.30;;;1.75;;
24163;SDS011;12319;49.204;8.116;2024-03-06T00:07:57;3.83;;;1.93;;
24163;SDS011;12319;49.204;8.116;2024-03-06T00:10:23;5.47;;;2.17;;
24163;SDS011;12319;49.204;8.116;2024-03-06T00:12:48;4.38;;;2.00;;
24163;SDS011;12319;49.204;8.116;2024-03-06T00:15:14;5.50;;;2.30;;
24163;SDS011;12319;49.204;8.116;2024-03-06T00:17:39;5.17;;;2.30;;
24163;SDS011;12319;49.204;8.116;2024-03-06T00:20:05;4.57;;;2.27;;
24163;SDS011;12319;49.204;8.116;2024-03-06T00:22:31;4.13;;;2.05;;
24163;SDS011;12319;49.204;8.116;2024-03-06T00:24:56;3.95;;;2.08;;
24163;SDS011;12319;49.204;8.116;2024-03-06T00:27:22;3.92;;;2.03;;
24163;SDS011;12319;49.204;8.116;2024-03-06T00:29:47;3.77;;;1.97;;
24163;SDS011;12319;49.204;8.116;2024-03-06T00:32:13;4.28;;;2.08;;
24163;SDS011;12319;49.204;8.116;2024-03-06T00:34:39;3.45;;;1.73;;
24163;SDS011;12319;49.204;8.116;2024-03-06T00:37:05;4.10;;;2.00;;
24163;SDS011;12319;49.204;8.116;2024-03-06T00:39:30;3.37;;;1.97;;
24163;SDS011;12319;49.204;8.116;2024-03-06T00:41:56;5.07;;;1.97;;
24163;SDS011;12319;49.204;8.116;2024-03-06T00:44:21;4.38;;;1.83;;
24163;SDS011;12319;49.204;8.116;2024-03-06T00:46:47;3.55;;;1.75;;
24163;SDS011;12319;49.204;8.116;2024-03-06T00:49:12;3.47;;;1.83;;
24163;SDS011;12319;49.204;8.116;2024-03-06T00:51:38;3.50;;;1.90;;
24163;SDS011;12319;49.204;8.116;2024-03-06T00:54:03;3.40;;;1.77;;
24163;SDS011;12319;49.204;8.116;2024-03-06T00:56:29;4.73;;;2.20;;
24163;SDS011;12319;49.204;8.116;2024-03-06T00:58:55;3.17;;;1.85;;
24163;SDS011;12319;49.204;8.116;2024-03-06T01:01:21;3.60;;;1.83;;
24163;SDS011;12319;49.204;8.116;2024-03-06T01:03:47;3.25;;;1.80;;
24163;SDS011;12319;49.204;8.116;2024-03-06T01:06:12;4.27;;;1.90;;
24163;SDS011;12319;49.204;8.116;2024-03-06T01:08:38;3.70;;;1.90;;
24163;SDS011;12319;49.204;8.116;2024-03-06T01:11:03;3.90;;;1.98;;
24163;SDS011;12319;49.204;8.116;2024-03-06T01:13:29;3.88;;;2.10;;
24163;SDS011;12319;49.204;8.116;2024-03-06T01:15:55;3.60;;;1.83;;
24163;SDS011;12319;49.204;8.116;2024-03-06T01:18:21;3.70;;;1.97;;
24163;SDS011;12319;49.204;8.116;2024-03-06T01:20:46;3.97;;;1.92;;
24163;SDS011;12319;49.204;8.116;2024-03-06T01:23:12;3.20;;;1.80;;
24163;SDS011;12319;49.204;8.116;2024-03-06T01:25:37;4.00;;;2.07;;
24163;SDS011;12319;49.204;8.116;2024-03-06T01:28:03;3.60;;;1.90;;
24163;SDS011;12319;49.204;8.116;2024-03-06T01:30:29;3.08;;;1.70;;
24163;SDS011;12319;49.204;8.116;2024-03-06T01:32:54;2.95;;;1.70;;
24163;SDS011;12319;49.204;8.116;2024-03-06T01:35:20;3.40;;;1.67;;
24163;SDS011;12319;49.204;8.116;2024-03-06T01:37:45;3.43;;;1.80;;
24163;SDS011;12319;49.204;8.116;2024-03-06T01:40:11;2.93;;;1.70;;
24163;SDS011;12319;49.204;8.116;2024-03-06T01:42:37;5.00;;;1.92;;
24163;SDS011;12319;49.204;8.116;2024-03-06T01:45:03;3.55;;;1.60;;
24163;SDS011;12319;49.204;8.116;2024-03-06T01:47:29;3.40;;;1.80;;
24163;SDS011;12319;49.204;8.116;2024-03-06T01:49:55;4.00;;;2.00;;
24163;SDS011;12319;49.204;8.116;2024-03-06T01:52:20;3.53;;;1.95;;
24163;SDS011;12319;49.204;8.116;2024-03-06T01:54:47;3.42;;;1.83;;
24163;SDS011;12319;49.204;8.116;2024-03-06T01:57:14;3.30;;;1.80;;
24163;SDS011;12319;49.204;8.116;2024-03-06T01:59:42;3.38;;;2.00;;
24163;SDS011;12319;49.204;8.116;2024-03-06T02:02:08;3.55;;;1.90;;
24163;SDS011;12319;49.204;8.116;2024-03-06T02:04:36;3.35;;;1.92;;
24163;SDS011;12319;49.204;8.116;2024-03-06T02:07:02;3.65;;;1.80;;
24163;SDS011;12319;49.204;8.116;2024-03-06T02:09:28;3.67;;;1.90;;
24163;SDS011;12319;49.204;8.116;2024-03-06T02:11:54;4.20;;;1.80;;
24163;SDS011;12319;49.204;8.116;2024-03-06T02:14:19;3.60;;;2.00;;
24163;SDS011;12319;49.204;8.116;2024-03-06T02:16:45;3.73;;;1.80;;
24163;SDS011;12319;49.204;8.116;2024-03-06T02:19:10;5.30;;;1.90;;
24163;SDS011;12319;49.204;8.116;2024-03-06T02:21:36;3.30;;;1.90;;
24163;SDS011;12319;49.204;8.116;2024-03-06T02:24:01;3.40;;;1.70;;
24163;SDS011;12319;49.204;8.116;2024-03-06T02:26:27;3.65;;;1.88;;
24163;SDS011;12319;49.204;8.116;2024-03-06T02:28:53;3.27;;;1.80;;
24163;SDS011;12319;49.204;8.116;2024-03-06T02:31:20;4.40;;;1.80;;
24163;SDS011;12319;49.204;8.116;2024-03-06T02:33:46;3.17;;;1.73;;
24163;SDS011;12319;49.204;8.116;2024-03-06T02:36:13;3.77;;;1.90;;
24163;SDS011;12319;49.204;8.116;2024-03-06T02:38:39;3.50;;;2.00;;
24163;SDS011;12319;49.204;8.116;2024-03-06T02:41:05;4.05;;;1.80;;
24163;SDS011;12319;49.204;8.116;2024-03-06T02:43:32;3.78;;;1.90;;
24163;SDS011;12319;49.204;8.116;2024-03-06T02:45:58;3.70;;;1.80;;
24163;SDS011;12319;49.204;8.116;2024-03-06T02:48:23;5.18;;;1.77;;
24163;SDS011;12319;49.204;8.116;2024-03-06T02:50:49;3.80;;;2.10;;
24163;SDS011;12319;49.204;8.116;2024-03-06T02:53:14;3.10;;;1.65;;
24163;SDS011;12319;49.204;8.116;2024-03-06T02:55:40;3.08;;;1.73;;
24163;SDS011;12319;49.204;8.116;2024-03-06T02:58:05;3.10;;;1.70;;
24163;SDS011;12319;49.204;8.116;2024-03-06T03:00:31;3.50;;;2.00;;
24163;SDS011;12319;49.204;8.116;2024-03-06T03:02:57;3.67;;;1.80;;
24163;SDS011;12319;49.204;8.116;2024-03-06T03:05:22;3.70;;;1.90;;
24163;SDS011;12319;49.204;8.116;2024-03-06T03:07:48;2.80;;;1.55;;
24163;SDS011;12319;49.204;8.116;2024-03-06T03:10:14;3.25;;;1.70;;
24163;SDS011;12319;49.204;8.116;2024-03-06T03:12:40;3.23;;;1.60;;
24163;SDS011;12319;49.204;8.116;2024-03-06T03:15:06;6.05;;;1.83;;
24163;SDS011;12319;49.204;8.116;2024-03-06T03:17:32;4.05;;;2.00;;
24163;SDS011;12319;49.204;8.116;2024-03-06T03:20:01;3.75;;;1.90;;
24163;SDS011;12319;49.204;8.116;2024-03-06T03:22:35;3.38;;;1.80;;
24163;SDS011;12319;49.204;8.116;2024-03-06T03:25:11;3.30;;;1.87;;
24163;SDS011;12319;49.204;8.116;2024-03-06T03:27:38;3.50;;;1.90;;
24163;SDS011;12319;49.204;8.116;2024-03-06T03:30:11;3.67;;;1.85;;
24163;SDS011;12319;49.204;8.116;2024-03-06T03:32:37;4.07;;;1.90;;
24163;SDS011;12319;49.204;8.116;2024-03-06T03:35:06;3.40;;;1.77;;
24163;SDS011;12319;49.204;8.116;2024-03-06T03:37:32;4.07;;;2.00;;
24163;SDS011;12319;49.204;8.116;2024-03-06T03:39:58;3.72;;;2.00;;
24163;SDS011;12319;49.204;8.116;2024-03-06T03:42:24;2.85;;;1.70;;
24163;SDS011;12319;49.204;8.116;2024-03-06T03:44:49;3.38;;;1.80;;
24163;SDS011;12319;49.204;8.116;2024-03-06T03:47:15;3.07;;;1.70;;
24163;SDS011;12319;49.204;8.116;2024-03-06T03:49:40;3.05;;;1.67;;
24163;SDS011;12319;49.204;8.116;2024-03-06T03:52:07;3.03;;;1.80;;
24163;SDS011;12319;49.204;8.116;2024-03-06T03:54:33;2.85;;;1.70;;
24163;SDS011;12319;49.204;8.116;2024-03-06T03:56:59;4.65;;;2.00;;
24163;SDS011;12319;49.204;8.116;2024-03-06T03:59:25;3.33;;;1.70;;
24163;SDS011;12319;49.204;8.116;2024-03-06T04:01:50;3.50;;;1.85;;
24163;SDS011;12319;49.204;8.116;2024-03-06T04:04:16;4.13;;;1.90;;
24163;SDS011;12319;49.204;8.116;2024-03-06T04:06:42;2.80;;;1.70;;
24163;SDS011;12319;49.204;8.116;2024-03-06T04:09:07;3.30;;;1.80;;
24163;SDS011;12319;49.204;8.116;2024-03-06T04:11:35;3.13;;;1.70;;
24163;SDS011;12319;49.204;8.116;2024-03-06T04:14:02;4.05;;;1.90;;
24163;SDS011;12319;49.204;8.116;2024-03-06T04:16:28;3.17;;;1.70;;
24163;SDS011;12319;49.204;8.116;2024-03-06T04:18:54;3.00;;;1.70;;
24163;SDS011;12319;49.204;8.116;2024-03-06T04:21:19;3.63;;;1.70;;
24163;SDS011;12319;49.204;8.116;2024-03-06T04:23:45;3.50;;;1.80;;
24163;SDS011;12319;49.204;8.116;2024-03-06T04:26:10;3.63;;;1.88;;
24163;SDS011;12319;49.204;8.116;2024-03-06T04:28:36;3.53;;;1.60;;
24163;SDS011;12319;49.204;8.116;2024-03-06T04:31:01;4.07;;;1.77;;
24163;SDS011;12319;49.204;8.116;2024-03-06T04:33:27;3.13;;;1.80;;
24163;SDS011;12319;49.204;8.116;2024-03-06T04:35:53;3.93;;;1.80;;
24163;SDS011;12319;49.204;8.116;2024-03-06T04:38:18;5.37;;;2.00;;
24163;SDS011;12319;49.204;8.116;2024-03-06T04:40:44;4.00;;;1.98;;
24163;SDS011;12319;49.204;8.116;2024-03-06T04:43:10;3.03;;;1.80;;
24163;SDS011;12319;49.204;8.116;2024-03-06T04:45:35;2.83;;;1.60;;
24163;SDS011;12319;49.204;8.116;2024-03-06T04:48:01;3.27;;;1.90;;
24163;SDS011;12319;49.204;8.116;2024-03-06T04:50:26;3.03;;;1.70;;
24163;SDS011;12319;49.204;8.116;2024-03-06T04:52:52;3.30;;;1.80;;
24163;SDS011;12319;49.204;8.116;2024-03-06T04:55:18;3.38;;;1.70;;
24163;SDS011;12319;49.204;8.116;2024-03-06T04:57:47;3.10;;;1.80;;
24163;SDS011;12319;49.204;8.116;2024-03-06T05:00:13;3.10;;;1.70;;
24163;SDS011;12319;49.204;8.116;2024-03-06T05:02:39;2.78;;;1.60;;
24163;SDS011;12319;49.204;8.116;2024-03-06T05:05:07;5.03;;;1.88;;
24163;SDS011;12319;49.204;8.116;2024-03-06T05:07:33;3.08;;;1.70;;
24163;SDS011;12319;49.204;8.116;2024-03-06T05:09:59;2.90;;;1.70;;
24163;SDS011;12319;49.204;8.116;2024-03-06T05:12:25;2.85;;;1.60;;
24163;SDS011;12319;49.204;8.116;2024-03-06T05:14:51;3.95;;;1.80;;
24163;SDS011;12319;49.204;8.116;2024-03-06T05:17:17;3.63;;;2.00;;
24163;SDS011;12319;49.204;8.116;2024-03-06T05:19:44;5.00;;;1.70;;
24163;SDS011;12319;49.204;8.116;2024-03-06T05:22:10;3.55;;;1.90;;
24163;SDS011;12319;49.204;8.116;2024-03-06T05:24:36;3.33;;;1.77;;
24163;SDS011;12319;49.204;8.116;2024-03-06T05:27:02;3.70;;;2.03;;
24163;SDS011;12319;49.204;8.116;2024-03-06T05:29:28;3.60;;;1.90;;
24163;SDS011;12319;49.204;8.116;2024-03-06T05:31:53;3.77;;;1.87;;
24163;SDS011;12319;49.204;8.116;2024-03-06T05:34:20;3.83;;;1.90;;
24163;SDS011;12319;49.204;8.116;2024-03-06T05:36:49;3.67;;;1.77;;
24163;SDS011;12319;49.204;8.116;2024-03-06T05:39:15;3.45;;;1.92;;
24163;SDS011;12319;49.204;8.116;2024-03-06T05:41:42;3.90;;;2.00;;
24163;SDS011;12319;49.204;8.116;2024-03-06T05:44:08;3.90;;;2.00;;
24163;SDS011;12319;49.204;8.116;2024-03-06T05:46:33;3.23;;;1.87;;
24163;SDS011;12319;49.204;8.116;2024-03-06T05:48:59;3.17;;;1.60;;
24163;SDS011;12319;49.204;8.116;2024-03-06T05:51:26;3.45;;;2.00;;
24163;SDS011;12319;49.204;8.116;2024-03-06T05:53:52;3.80;;;1.80;;
24163;SDS011;12319;49.204;8.116;2024-03-06T05:56:18;4.22;;;1.70;;
24163;SDS011;12319;49.204;8.116;2024-03-06T05:58:47;3.58;;;1.90;;
24163;SDS011;12319;49.204;8.116;2024-03-06T06:01:14;2.93;;;1.70;;
24163;SDS011;12319;49.204;8.116;2024-03-06T06:03:43;3.30;;;1.70;;
24163;SDS011;12319;49.204;8.116;2024-03-06T06:06:09;3.27;;;1.80;;
24163;SDS011;12319;49.204;8.116;2024-03-06T06:08:34;5.82;;;2.20;;
24163;SDS011;12319;49.204;8.116;2024-03-06T06:11:01;3.97;;;1.93;;
24163;SDS011;12319;49.204;8.116;2024-03-06T06:13:28;4.90;;;1.95;;
24163;SDS011;12319;49.204;8.116;2024-03-06T06:15:53;3.67;;;1.83;;
24163;SDS011;12319;49.204;8.116;2024-03-06T06:18:19;3.67;;;1.90;;
24163;SDS011;12319;49.204;8.116;2024-03-06T06:20:45;3.80;;;2.10;;
24163;SDS011;12319;49.204;8.116;2024-03-06T06:23:10;4.20;;;2.10;;
24163;SDS011;12319;49.204;8.116;2024-03-06T06:25:36;3.90;;;2.00;;
24163;SDS011;12319;49.204;8.116;2024-03-06T06:28:01;3.50;;;2.00;;
24163;SDS011;12319;49.204;8.116;2024-03-06T06:30:27;4.20;;;1.77;;
24163;SDS011;12319;49.204;8.116;2024-03-06T06:32:53;4.03;;;1.80;;
24163;SDS011;12319;49.204;8.116;2024-03-06T06:35:18;4.03;;;1.98;;
24163;SDS011;12319;49.204;8.116;2024-03-06T06:37:44;7.13;;;2.10;;
24163;SDS011;12319;49.204;8.116;2024-03-06T06:40:10;3.87;;;2.07;;
24163;SDS011;12319;49.204;8.116;2024-03-06T06:42:37;4.13;;;2.10;;
24163;SDS011;12319;49.204;8.116;2024-03-06T06:45:08;3.78;;;2.05;;
24163;SDS011;12319;49.204;8.116;2024-03-06T06:47:34;3.70;;;1.90;;
24163;SDS011;12319;49.204;8.116;2024-03-06T06:50:00;4.43;;;2.20;;
24163;SDS011;12319;49.204;8.116;2024-03-06T06:52:25;3.53;;;2.00;;
24163;SDS011;12319;49.204;8.116;2024-03-06T06:54:52;4.50;;;2.20;;
24163;SDS011;12319;49.204;8.116;2024-03-06T06:57:18;4.60;;;2.20;;
24163;SDS011;12319;49.204;8.116;2024-03-06T06:59:44;4.30;;;2.20;;
24163;SDS011;12319;49.204;8.116;2024-03-06T07:02:10;5.47;;;2.30;;
24163;SDS011;12319;49.204;8.116;2024-03-06T07:04:35;4.30;;;2.23;;
24163;SDS011;12319;49.204;8.116;2024-03-06T07:07:01;4.53;;;2.30;;
24163;SDS011;12319;49.204;8.116;2024-03-06T07:09:27;4.80;;;2.20;;
24163;SDS011;12319;49.204;8.116;2024-03-06T07:11:54;4.73;;;2.30;;
24163;SDS011;12319;49.204;8.116;2024-03-06T07:14:20;4.65;;;2.30;;
24163;SDS011;12319;49.204;8.116;2024-03-06T07:16:46;4.07;;;2.20;;
24163;SDS011;12319;49.204;8.116;2024-03-06T07:19:12;4.87;;;2.40;;
24163;SDS011;12319;49.204;8.116;2024-03-06T07:21:38;4.10;;;2.08;;
24163;SDS011;12319;49.204;8.116;2024-03-06T07:24:04;5.53;;;2.25;;
24163;SDS011;12319;49.204;8.116;2024-03-06T07:26:33;4.10;;;2.20;;
24163;SDS011;12319;49.204;8.116;2024-03-06T07:29:00;4.13;;;2.10;;
24163;SDS011;12319;49.204;8.116;2024-03-06T07:31:25;5.35;;;2.22;;
24163;SDS011;12319;49.204;8.116;2024-03-06T07:33:51;4.57;;;2.25;;
24163;SDS011;12319;49.204;8.116;2024-03-06T07:36:17;4.70;;;2.20;;
24163;SDS011;12319;49.204;8.116;2024-03-06T07:38:43;4.72;;;2.33;;
24163;SDS011;12319;49.204;8.116;2024-03-06T07:41:09;4.57;;;2.43;;
24163;SDS011;12319;49.204;8.116;2024-03-06T07:43:35;6.03;;;2.67;;
24163;SDS011;12319;49.204;8.116;2024-03-06T07:46:03;4.57;;;2.30;;
24163;SDS011;12319;49.204;8.116;2024-03-06T07:48:35;5.47;;;2.30;;
24163;SDS011;12319;49.204;8.116;2024-03-06T07:51:03;4.40;;;2.25;;
24163;SDS011;12319;49.204;8.116;2024-03-06T07:53:29;4.53;;;2.38;;
24163;SDS011;12319;49.204;8.116;2024-03-06T07:55:54;4.80;;;2.10;;
24163;SDS011;12319;49.204;8.116;2024-03-06T07:58:20;5.13;;;2.35;;
24163;SDS011;12319;49.204;8.116;2024-03-06T08:00:46;6.20;;;2.20;;
24163;SDS011;12319;49.204;8.116;2024-03-06T08:03:12;4.63;;;2.20;;
24163;SDS011;12319;49.204;8.116;2024-03-06T08:05:38;4.65;;;2.30;;
24163;SDS011;12319;49.204;8.116;2024-03-06T08:08:04;4.23;;;2.10;;
24163;SDS011;12319;49.204;8.116;2024-03-06T08:10:30;4.60;;;2.30;;
24163;SDS011;12319;49.204;8.116;2024-03-06T08:12:56;5.13;;;2.30;;
24163;SDS011;12319;49.204;8.116;2024-03-06T08:15:22;4.32;;;2.22;;
24163;SDS011;12319;49.204;8.116;2024-03-06T08:17:48;4.35;;;2.25;;
24163;SDS011;12319;49.204;8.116;2024-03-06T08:20:14;7.82;;;2.40;;
24163;SDS011;12319;49.204;8.116;2024-03-06T08:22:41;4.73;;;2.37;;
24163;SDS011;12319;49.204;8.116;2024-03-06T08:25:08;4.80;;;2.45;;
24163;SDS011;12319;49.204;8.116;2024-03-06T08:27:34;4.40;;;2.30;;
24163;SDS011;12319;49.204;8.116;2024-03-06T08:30:02;4.40;;;2.30;;
24163;SDS011;12319;49.204;8.116;2024-03-06T08:32:31;4.28;;;2.10;;
24163;SDS011;12319;49.204;8.116;2024-03-06T08:35:00;5.88;;;2.35;;
24163;SDS011;12319;49.204;8.116;2024-03-06T08:37:37;4.90;;;2.55;;
24163;SDS011;12319;49.204;8.116;2024-03-06T08:40:03;4.78;;;2.47;;
24163;SDS011;12319;49.204;8.116;2024-03-06T08:42:29;4.80;;;2.30;;
24163;SDS011;12319;49.204;8.116;2024-03-06T08:44:54;4.35;;;2.25;;
24163;SDS011;12319;49.204;8.116;2024-03-06T08:47:20;4.53;;;2.27;;
24163;SDS011;12319;49.204;8.116;2024-03-06T08:49:45;5.45;;;2.40;;
24163;SDS011;12319;49.204;8.116;2024-03-06T08:52:11;4.97;;;2.30;;
24163;SDS011;12319;49.204;8.116;2024-03-06T08:54:38;4.93;;;2.47;;
24163;SDS011;12319;49.204;8.116;2024-03-06T08:57:06;4.37;;;2.10;;
24163;SDS011;12319;49.204;8.116;2024-03-06T08:59:33;4.93;;;2.20;;
24163;SDS011;12319;49.204;8.116;2024-03-06T09:02:11;5.22;;;2.60;;
24163;SDS011;12319;49.204;8.116;2024-03-06T09:04:41;4.85;;;2.22;;
24163;SDS011;12319;49.204;8.116;2024-03-06T09:07:07;5.97;;;2.53;;
24163;SDS011;12319;49.204;8.116;2024-03-06T09:09:33;4.73;;;2.30;;
24163;SDS011;12319;49.204;8.116;2024-03-06T09:12:00;4.95;;;2.40;;
24163;SDS011;12319;49.204;8.116;2024-03-06T09:14:26;5.23;;;2.80;;
24163;SDS011;12319;49.204;8.116;2024-03-06T09:16:51;4.78;;;2.42;;
24163;SDS011;12319;49.204;8.116;2024-03-06T09:19:17;4.77;;;2.43;;
24163;SDS011;12319;49.204;8.116;2024-03-06T09:21:42;5.57;;;2.42;;
24163;SDS011;12319;49.204;8.116;2024-03-06T09:24:08;5.25;;;2.30;;
24163;SDS011;12319;49.204;8.116;2024-03-06T09:26:33;4.93;;;2.00;;
24163;SDS011;12319;49.204;8.116;2024-03-06T09:28:59;4.47;;;2.33;;
24163;SDS011;12319;49.204;8.116;2024-03-06T09:31:26;4.53;;;2.10;;
24163;SDS011;12319;49.204;8.116;2024-03-06T09:33:52;5.97;;;2.45;;
24163;SDS011;12319;49.204;8.116;2024-03-06T09:36:18;5.63;;;2.30;;
24163;SDS011;12319;49.204;8.116;2024-03-06T09:38:43;4.03;;;2.20;;
24163;SDS011;12319;49.204;8.116;2024-03-06T09:41:09;5.50;;;2.33;;
24163;SDS011;12319;49.204;8.116;2024-03-06T09:43:35;4.50;;;2.03;;
24163;SDS011;12319;49.204;8.116;2024-03-06T09:46:01;4.35;;;2.20;;
24163;SDS011;12319;49.204;8.116;2024-03-06T09:48:27;4.30;;;2.10;;
24163;SDS011;12319;49.204;8.116;2024-03-06T09:50:54;4.40;;;2.00;;
24163;SDS011;12319;49.204;8.116;2024-03-06T09:53:25;3.70;;;1.90;;
24163;SDS011;12319;49.204;8.116;2024-03-06T09:55:51;3.80;;;1.92;;
24163;SDS011;12319;49.204;8.116;2024-03-06T09:58:17;3.95;;;2.00;;
24163;SDS011;12319;49.204;8.116;2024-03-06T10:00:44;4.18;;;2.05;;
24163;SDS011;12319;49.204;8.116;2024-03-06T10:03:11;3.40;;;1.77;;
24163;SDS011;12319;49.204;8.116;2024-03-06T10:05:38;4.70;;;1.90;;
24163;SDS011;12319;49.204;8.116;2024-03-06T10:08:04;4.90;;;2.00;;
24163;SDS011;12319;49.204;8.116;2024-03-06T10:10:30;4.07;;;2.05;;
24163;SDS011;12319;49.204;8.116;2024-03-06T10:12:56;4.03;;;1.87;;
24163;SDS011;12319;49.204;8.116;2024-03-06T10:15:22;3.72;;;1.80;;
24163;SDS011;12319;49.204;8.116;2024-03-06T10:17:48;3.92;;;2.00;;
24163;SDS011;12319;49.204;8.116;2024-03-06T10:20:20;4.90;;;1.83;;
24163;SDS011;12319;49.204;8.116;2024-03-06T10:22:48;4.00;;;2.10;;
24163;SDS011;12319;49.204;8.116;2024-03-06T10:25:16;6.53;;;2.35;;
24163;SDS011;12319;49.204;8.116;2024-03-06T10:28:08;5.28;;;2.30;;
24163;SDS011;12319;49.204;8.116;2024-03-06T10:30:37;4.28;;;2.10;;
24163;SDS011;12319;49.204;8.116;2024-03-06T10:33:06;4.53;;;2.20;;
24163;SDS011;12319;49.204;8.116;2024-03-06T10:35:32;4.20;;;2.10;;
24163;SDS011;12319;49.204;8.116;2024-03-06T10:38:03;4.63;;;1.85;;
24163;SDS011;12319;49.204;8.116;2024-03-06T10:40:33;4.28;;;1.95;;
24163;SDS011;12319;49.204;8.116;2024-03-06T10:43:00;6.57;;;2.13;;
24163;SDS011;12319;49.204;8.116;2024-03-06T10:45:33;4.85;;;2.00;;
24163;SDS011;12319;49.204;8.116;2024-03-06T10:48:09;4.67;;;1.93;;
24163;SDS011;12319;49.204;8.116;2024-03-06T10:50:37;4.95;;;2.17;;
24163;SDS011;12319;49.204;8.116;2024-03-06T10:53:05;4.35;;;1.90;;
24163;SDS011;12319;49.204;8.116;2024-03-06T10:55:35;4.00;;;2.08;;
24163;SDS011;12319;49.204;8.116;2024-03-06T10:58:01;4.22;;;2.08;;
24163;SDS011;12319;49.204;8.116;2024-03-06T11:00:33;3.78;;;1.85;;
24163;SDS011;12319;49.204;8.116;2024-03-06T11:03:11;4.47;;;1.77;;
24163;SDS011;12319;49.204;8.116;2024-03-06T11:05:37;4.38;;;2.15;;
24163;SDS011;12319;49.204;8.116;2024-03-06T11:08:10;3.90;;;1.90;;
24163;SDS011;12319;49.204;8.116;2024-03-06T11:10:46;3.97;;;1.88;;
24163;SDS011;12319;49.204;8.116;2024-03-06T11:15:51;3.95;;;1.88;;
24163;SDS011;12319;49.204;8.116;2024-03-06T11:23:27;4.37;;;2.00;;
24163;SDS011;12319;49.204;8.116;2024-03-06T11:28:28;4.20;;;1.90;;
24163;SDS011;12319;49.204;8.116;2024-03-06T11:30:56;4.85;;;1.88;;
24163;SDS011;12319;49.204;8.116;2024-03-06T11:33:35;4.38;;;2.03;;
24163;SDS011;12319;49.204;8.116;2024-03-06T11:38:59;3.95;;;1.70;;
24163;SDS011;12319;49.204;8.116;2024-03-06T11:41:29;3.70;;;2.10;;
24163;SDS011;12319;49.204;8.116;2024-03-06T11:43:59;3.88;;;1.77;;
24163;SDS011;12319;49.204;8.116;2024-03-06T11:46:44;4.07;;;2.10;;
24163;SDS011;12319;49.204;8.116;2024-03-06T11:49:23;4.30;;;1.98;;
24163;SDS011;12319;49.204;8.116;2024-03-06T11:51:54;3.92;;;1.80;;
24163;SDS011;12319;49.204;8.116;2024-03-06T11:54:22;3.87;;;1.73;;
24163;SDS011;12319;49.204;8.116;2024-03-06T11:56:49;5.47;;;1.90;;
24163;SDS011;12319;49.204;8.116;2024-03-06T11:59:16;4.70;;;2.10;;
24163;SDS011;12319;49.204;8.116;2024-03-06T12:01:42;3.28;;;1.88;;
24163;SDS011;12319;49.204;8.116;2024-03-06T12:04:08;4.13;;;2.03;;
24163;SDS011;12319;49.204;8.116;2024-03-06T12:06:33;4.80;;;2.20;;
24163;SDS011;12319;49.204;8.116;2024-03-06T12:09:02;3.30;;;1.70;;
24163;SDS011;12319;49.204;8.116;2024-03-06T12:11:28;3.92;;;1.70;;
24163;SDS011;12319;49.204;8.116;2024-03-06T12:13:55;4.05;;;1.80;;
24163;SDS011;12319;49.204;8.116;2024-03-06T12:16:21;4.30;;;2.20;;
24163;SDS011;12319;49.204;8.116;2024-03-06T12:18:53;5.65;;;2.00;;
24163;SDS011;12319;49.204;8.116;2024-03-06T12:21:22;3.80;;;1.95;;
24163;SDS011;12319;49.204;8.116;2024-03-06T12:24:03;3.83;;;1.73;;
24163;SDS011;12319;49.204;8.116;2024-03-06T12:26:36;5.47;;;2.05;;
24163;SDS011;12319;49.204;8.116;2024-03-06T12:29:05;4.10;;;2.00;;
24163;SDS011;12319;49.204;8.116;2024-03-06T12:31:35;3.95;;;1.90;;
24163;SDS011;12319;49.204;8.116;2024-03-06T12:34:06;4.10;;;2.05;;
24163;SDS011;12319;49.204;8.116;2024-03-06T12:36:32;4.23;;;1.90;;
24163;SDS011;12319;49.204;8.116;2024-03-06T12:38:58;3.83;;;1.95;;
24163;SDS011;12319;49.204;8.116;2024-03-06T12:41:26;3.47;;;1.70;;
24163;SDS011;12319;49.204;8.116;2024-03-06T12:43:52;4.13;;;2.00;;
24163;SDS011;12319;49.204;8.116;2024-03-06T12:46:18;3.80;;;1.70;;
24163;SDS011;12319;49.204;8.116;2024-03-06T12:48:44;3.78;;;1.92;;
24163;SDS011;12319;49.204;8.116;2024-03-06T12:51:10;4.13;;;2.00;;
24163;SDS011;12319;49.204;8.116;2024-03-06T12:53:36;3.80;;;2.05;;
24163;SDS011;12319;49.204;8.116;2024-03-06T12:56:01;3.77;;;1.90;;
24163;SDS011;12319;49.204;8.116;2024-03-06T12:58:27;4.03;;;1.98;;
24163;SDS011;12319;49.204;8.116;2024-03-06T13:00:53;3.50;;;1.77;;
24163;SDS011;12319;49.204;8.116;2024-03-06T13:03:19;3.30;;;1.70;;
24163;SDS011;12319;49.204;8.116;2024-03-06T13:05:45;4.00;;;2.05;;
24163;SDS011;12319;49.204;8.116;2024-03-06T13:08:11;4.00;;;1.83;;
24163;SDS011;12319;49.204;8.116;2024-03-06T13:10:40;3.63;;;2.03;;
24163;SDS011;12319;49.204;8.116;2024-03-06T13:13:06;3.78;;;1.90;;
24163;SDS011;12319;49.204;8.116;2024-03-06T13:15:32;4.63;;;2.00;;
24163;SDS011;12319;49.204;8.116;2024-03-06T13:17:59;3.80;;;1.90;;
24163;SDS011;12319;49.204;8.116;2024-03-06T13:20:28;4.72;;;1.90;;
24163;SDS011;12319;49.204;8.116;2024-03-06T13:22:54;5.60;;;1.70;;
24163;SDS011;12319;49.204;8.116;2024-03-06T13:25:20;4.90;;;1.92;;
24163;SDS011;12319;49.204;8.116;2024-03-06T13:27:46;4.77;;;2.00;;
24163;SDS011;12319;49.204;8.116;2024-03-06T13:30:12;5.85;;;1.90;;
24163;SDS011;12319;49.204;8.116;2024-03-06T13:32:37;4.40;;;1.93;;
24163;SDS011;12319;49.204;8.116;2024-03-06T13:35:03;3.90;;;1.80;;
24163;SDS011;12319;49.204;8.116;2024-03-06T13:37:31;4.23;;;1.80;;
24163;SDS011;12319;49.204;8.116;2024-03-06T13:39:57;4.70;;;2.20;;
24163;SDS011;12319;49.204;8.116;2024-03-06T13:42:26;4.30;;;2.08;;
24163;SDS011;12319;49.204;8.116;2024-03-06T13:44:52;4.50;;;2.20;;
24163;SDS011;12319;49.204;8.116;2024-03-06T13:47:18;4.20;;;2.20;;
24163;SDS011;12319;49.204;8.116;2024-03-06T13:49:44;4.45;;;2.20;;
24163;SDS011;12319;49.204;8.116;2024-03-06T13:52:10;5.33;;;1.97;;
24163;SDS011;12319;49.204;8.116;2024-03-06T13:54:39;3.67;;;1.95;;
24163;SDS011;12319;49.204;8.116;2024-03-06T13:57:06;4.45;;;2.03;;
24163;SDS011;12319;49.204;8.116;2024-03-06T13:59:33;5.50;;;2.07;;
24163;SDS011;12319;49.204;8.116;2024-03-06T14:01:59;3.70;;;1.90;;
24163;SDS011;12319;49.204;8.116;2024-03-06T14:04:25;3.67;;;1.83;;
24163;SDS011;12319;49.204;8.116;2024-03-06T14:06:51;4.20;;;2.00;;
24163;SDS011;12319;49.204;8.116;2024-03-06T14:09:17;6.10;;;2.30;;
24163;SDS011;12319;49.204;8.116;2024-03-06T14:11:42;4.90;;;2.50;;
24163;SDS011;12319;49.204;8.116;2024-03-06T14:14:08;4.80;;;2.40;;
24163;SDS011;12319;49.204;8.116;2024-03-06T14:16:34;4.55;;;2.20;;
24163;SDS011;12319;49.204;8.116;2024-03-06T14:19:00;4.60;;;2.30;;
24163;SDS011;12319;49.204;8.116;2024-03-06T14:21:26;5.60;;;2.15;;
24163;SDS011;12319;49.204;8.116;2024-03-06T14:23:51;6.67;;;2.10;;
24163;SDS011;12319;49.204;8.116;2024-03-06T14:26:17;3.83;;;1.88;;
24163;SDS011;12319;49.204;8.116;2024-03-06T14:28:43;4.00;;;2.00;;
24163;SDS011;12319;49.204;8.116;2024-03-06T14:31:08;4.60;;;2.10;;
24163;SDS011;12319;49.204;8.116;2024-03-06T14:33:38;3.70;;;2.00;;
24163;SDS011;12319;49.204;8.116;2024-03-06T14:36:05;3.63;;;2.00;;
24163;SDS011;12319;49.204;8.116;2024-03-06T14:38:31;4.53;;;2.13;;
24163;SDS011;12319;49.204;8.116;2024-03-06T14:40:57;4.15;;;1.95;;
24163;SDS011;12319;49.204;8.116;2024-03-06T14:43:23;4.90;;;2.28;;
24163;SDS011;12319;49.204;8.116;2024-03-06T14:45:49;4.25;;;1.92;;
24163;SDS011;12319;49.204;8.116;2024-03-06T14:48:15;4.05;;;1.92;;
24163;SDS011;12319;49.204;8.116;2024-03-06T14:50:41;6.07;;;2.20;;
24163;SDS011;12319;49.204;8.116;2024-03-06T14:53:07;4.57;;;1.90;;
24163;SDS011;12319;49.204;8.116;2024-03-06T14:55:33;3.70;;;1.90;;
24163;SDS011;12319;49.204;8.116;2024-03-06T14:57:59;3.75;;;2.03;;